createdAt,value
2022-08-04T00:01:37.078Z,24.50
2022-08-04T00:04:05.832Z,24.49
2022-08-04T00:06:35.006Z,24.49
2022-08-04T00:09:03.330Z,24.42
2022-08-04T00:11:30.548Z,24.40
2022-08-04T00:14:03.532Z,24.40
2022-08-04T00:16:37.855Z,24.38
2022-08-04T00:19:07.448Z,24.31
2022-08-04T00:21:35.400Z,24.30
2022-08-04T00:24:12.394Z,24.28
2022-08-04T00:26:39.742Z,24.19
2022-08-04T00:29:09.151Z,24.19
2022-08-04T00:31:56.443Z,24.21
2022-08-04T00:34:27.615Z,24.19
2022-08-04T00:36:54.560Z,24.20
2022-08-04T00:39:23.986Z,24.19
2022-08-04T00:41:56.326Z,24.17
2022-08-04T00:44:29.455Z,24.18
2022-08-04T00:47:17.175Z,24.17
2022-08-04T00:50:21.605Z,24.15
2022-08-04T00:52:48.181Z,24.06
2022-08-04T00:55:22.490Z,24.07
2022-08-04T00:58:01.187Z,24.07
2022-08-04T01:00:40.770Z,24.08
2022-08-04T01:03:27.668Z,24.08
2022-08-04T01:06:10.023Z,24.08
2022-08-04T01:08:45.822Z,24.06
2022-08-04T01:11:31.146Z,24.05
2022-08-04T01:14:18.667Z,24.05
2022-08-04T01:16:48.900Z,24.01
2022-08-04T01:19:18.583Z,23.97
2022-08-04T01:21:51.267Z,23.95
2022-08-04T01:24:33.564Z,23.91
2022-08-04T01:27:04.338Z,23.92
2022-08-04T01:29:46.563Z,23.93
2022-08-04T01:32:21.029Z,23.95
2022-08-04T01:35:04.342Z,23.92
2022-08-04T01:37:39.411Z,23.91
2022-08-04T01:40:06.848Z,23.90
2022-08-04T01:42:33.881Z,23.91
2022-08-04T01:45:03.834Z,23.92
2022-08-04T01:47:31.006Z,23.93
2022-08-04T01:50:07.883Z,23.90
2022-08-04T01:52:42.316Z,23.84
2022-08-04T01:55:13.394Z,23.73
2022-08-04T01:57:47.062Z,23.68
2022-08-04T02:00:15.221Z,23.67
2022-08-04T02:02:44.451Z,23.63
2022-08-04T02:05:14.061Z,23.61
2022-08-04T02:07:43.545Z,23.58
2022-08-04T02:10:15.823Z,23.58
2022-08-04T02:13:00.863Z,23.58
2022-08-04T02:15:29.179Z,23.55
2022-08-04T02:18:05.711Z,23.54
2022-08-04T02:20:36.578Z,23.55
2022-08-04T02:23:09.566Z,23.57
2022-08-04T02:25:51.536Z,23.55
2022-08-04T02:28:36.546Z,23.55
2022-08-04T02:31:23.395Z,23.55
2022-08-04T02:33:56.756Z,23.48
2022-08-04T02:36:24.485Z,23.48
2022-08-04T02:39:00.966Z,23.47
2022-08-04T02:41:29.159Z,23.48
2022-08-04T02:43:56.692Z,23.49
2022-08-04T02:46:23.501Z,23.51
2022-08-04T02:48:51.003Z,23.50
2022-08-04T02:51:20.011Z,23.49
2022-08-04T02:53:48.961Z,23.44
2022-08-04T02:56:19.399Z,23.46
2022-08-04T02:58:53.393Z,23.47
2022-08-04T03:01:21.632Z,23.46
2022-08-04T03:03:48.373Z,23.45
2022-08-04T03:06:24.969Z,23.40
2022-08-04T03:08:53.893Z,23.38
2022-08-04T03:11:39.262Z,23.39
2022-08-04T03:14:09.672Z,23.38
2022-08-04T03:16:40.096Z,23.39
2022-08-04T03:19:09.151Z,23.37
2022-08-04T03:21:54.366Z,23.37
2022-08-04T03:24:43.350Z,23.34
2022-08-04T03:27:22.889Z,23.35
2022-08-04T03:29:55.281Z,23.35
2022-08-04T03:32:27.917Z,23.38
2022-08-04T03:35:13.608Z,23.37
2022-08-04T03:38:02.635Z,23.37
2022-08-04T03:40:47.597Z,23.33
2022-08-04T03:43:57.721Z,23.30
2022-08-04T03:46:07.184Z,23.27
2022-08-04T03:48:54.093Z,23.28
2022-08-04T03:51:43.660Z,23.22
2022-08-04T03:54:10.215Z,23.23
2022-08-04T03:56:43.074Z,23.24
2022-08-04T03:59:20.850Z,23.27
2022-08-04T04:02:02.831Z,23.29
2022-08-04T04:04:33.188Z,23.30
2022-08-04T04:07:06.722Z,23.32
2022-08-04T04:09:57.177Z,23.34
2022-08-04T04:12:27.582Z,23.36
2022-08-04T04:15:09.223Z,23.37
2022-08-04T04:17:43.395Z,23.39
2022-08-04T04:20:10.978Z,23.41
2022-08-04T04:22:56.063Z,23.46
2022-08-04T04:25:42.436Z,23.49
2022-08-04T04:28:45.460Z,23.55
2022-08-04T04:31:11.573Z,23.60
2022-08-04T04:33:44.463Z,23.66
2022-08-04T04:36:12.164Z,23.70
2022-08-04T04:39:00.945Z,23.75
2022-08-04T04:41:32.465Z,23.78
2022-08-04T04:44:15.794Z,23.80
2022-08-04T04:47:03.287Z,23.85
2022-08-04T04:49:49.881Z,23.90
2022-08-04T04:52:30.665Z,23.98
2022-08-04T04:55:18.622Z,24.01
2022-08-04T04:57:53.524Z,24.03
2022-08-04T05:00:22.195Z,24.03
2022-08-04T05:03:29.596Z,24.04
2022-08-04T05:05:59.408Z,24.06
2022-08-04T05:08:43.127Z,24.08
2022-08-04T05:11:24.883Z,24.08
2022-08-04T05:14:38.328Z,24.08
2022-08-04T05:16:44.827Z,24.10
2022-08-04T05:19:14.468Z,24.09
2022-08-04T05:21:50.963Z,24.05
2022-08-04T05:24:21.228Z,24.04
2022-08-04T05:26:50.086Z,24.04
2022-08-04T05:29:30.938Z,24.03
2022-08-04T05:31:59.967Z,24.05
2022-08-04T05:34:28.434Z,24.08
2022-08-04T05:36:58.783Z,24.12
2022-08-04T05:39:33.836Z,24.16
2022-08-04T05:42:04.650Z,24.17
2022-08-04T05:44:32.050Z,24.19
2022-08-04T05:47:01.293Z,24.24
2022-08-04T05:49:30.704Z,24.29
2022-08-04T05:52:01.269Z,24.33
2022-08-04T05:54:28.404Z,24.38
2022-08-04T05:56:57.861Z,24.42
2022-08-04T05:59:25.851Z,24.47
2022-08-04T06:01:57.221Z,24.53
2022-08-04T06:04:35.412Z,24.58
2022-08-04T06:07:02.438Z,24.67
2022-08-04T06:09:29.016Z,24.71
2022-08-04T06:12:03.476Z,24.80
2022-08-04T06:14:44.341Z,24.89
2022-08-04T06:18:32.624Z,24.96
2022-08-04T06:20:20.275Z,25.06
2022-08-04T06:22:49.880Z,25.14
2022-08-04T06:25:20.951Z,25.22
2022-08-04T06:27:48.246Z,25.28
2022-08-04T06:30:19.272Z,25.34
2022-08-04T06:32:49.798Z,25.40
2022-08-04T06:35:19.275Z,25.48
2022-08-04T06:37:46.633Z,25.53
2022-08-04T06:40:31.965Z,25.58
2022-08-04T06:43:06.790Z,25.67
2022-08-04T06:45:34.818Z,25.73
2022-08-04T06:48:01.925Z,25.78
2022-08-04T06:51:26.384Z,25.85
2022-08-04T06:53:15.494Z,25.96
2022-08-04T06:55:49.029Z,26.01
2022-08-04T06:58:16.061Z,26.06
2022-08-04T07:00:46.026Z,26.13
2022-08-04T07:03:16.373Z,26.21
2022-08-04T07:05:43.443Z,26.32
2022-08-04T07:08:12.509Z,26.37
2022-08-04T07:10:41.638Z,26.44
2022-08-04T07:13:11.156Z,26.51
2022-08-04T07:15:37.977Z,26.55
2022-08-04T07:18:05.226Z,26.63
2022-08-04T07:20:36.793Z,26.69
2022-08-04T07:23:07.114Z,26.72
2022-08-04T07:25:58.744Z,26.70
2022-08-04T07:28:22.288Z,26.75
2022-08-04T07:30:49.554Z,26.80
2022-08-04T07:33:19.157Z,26.89
2022-08-04T07:36:10.543Z,26.95
2022-08-04T07:38:33.155Z,27.04
2022-08-04T07:41:00.019Z,27.10
2022-08-04T07:43:27.751Z,27.18
2022-08-04T07:45:54.369Z,27.28
2022-08-04T07:48:24.529Z,27.41
2022-08-04T07:50:54.404Z,27.54
2022-08-04T07:53:52.959Z,27.63
2022-08-04T07:56:08.138Z,27.71
2022-08-04T07:58:35.008Z,27.76
2022-08-04T08:01:01.834Z,27.84
2022-08-04T08:03:32.037Z,27.92
2022-08-04T08:06:17.704Z,28.02
2022-08-04T08:08:55.072Z,28.15
2022-08-04T08:11:21.823Z,28.29
2022-08-04T08:13:51.395Z,28.40
2022-08-04T08:16:21.004Z,28.49
2022-08-04T08:18:50.328Z,28.56
2022-08-04T08:21:21.773Z,28.64
2022-08-04T08:23:51.836Z,28.65
2022-08-04T08:26:20.747Z,28.71
2022-08-04T08:28:47.386Z,28.75
2022-08-04T08:31:14.013Z,28.76
2022-08-04T08:33:41.287Z,28.84
2022-08-04T08:36:09.908Z,28.94
2022-08-04T08:38:39.250Z,29.03
2022-08-04T08:41:08.549Z,29.05
2022-08-04T08:44:03.794Z,29.14
2022-08-04T08:46:49.346Z,29.24
2022-08-04T08:50:00.988Z,29.33
2022-08-04T08:53:00.643Z,29.46
2022-08-04T08:55:43.417Z,29.59
2022-08-04T08:58:47.767Z,29.70
2022-08-04T09:01:14.342Z,29.84
2022-08-04T09:03:49.823Z,29.93
2022-08-04T09:06:32.381Z,30.02
2022-08-04T09:09:07.712Z,30.12
2022-08-04T09:11:42.464Z,30.20
2022-08-04T09:14:11.347Z,30.28
2022-08-04T09:16:54.606Z,30.35
2022-08-04T09:19:38.945Z,30.41
2022-08-04T09:22:12.466Z,30.52
2022-08-04T09:24:44.890Z,30.62
2022-08-04T09:27:21.598Z,30.69
2022-08-04T09:30:03.168Z,30.71
2022-08-04T09:32:39.144Z,30.79
2022-08-04T09:35:15.812Z,30.88
2022-08-04T09:37:46.555Z,30.96
2022-08-04T09:40:31.729Z,30.91
2022-08-04T09:43:09.735Z,30.95
2022-08-04T09:45:44.214Z,31.07
2022-08-04T09:48:17.875Z,31.20
2022-08-04T09:50:50.007Z,31.32
2022-08-04T09:53:35.741Z,31.44
2022-08-04T09:56:03.502Z,31.60
2022-08-04T09:58:37.284Z,31.72
2022-08-04T10:01:08.557Z,31.86
2022-08-04T10:03:35.712Z,31.98
2022-08-04T10:06:08.045Z,32.13
2022-08-04T10:08:40.651Z,32.24
2022-08-04T10:11:15.133Z,32.34
2022-08-04T10:13:52.869Z,32.43
2022-08-04T10:16:38.642Z,32.55
2022-08-04T10:19:34.678Z,32.65
2022-08-04T10:22:28.077Z,32.78
2022-08-04T10:24:47.694Z,32.92
2022-08-04T10:27:21.830Z,32.99
2022-08-04T10:29:48.746Z,33.01
2022-08-04T10:32:43.273Z,32.90
2022-08-04T10:35:16.469Z,32.90
2022-08-04T10:38:00.194Z,32.96
2022-08-04T10:40:37.561Z,33.21
2022-08-04T10:43:22.777Z,33.47
2022-08-04T10:45:58.051Z,33.55
2022-08-04T10:48:36.892Z,33.79
2022-08-04T10:51:11.753Z,34.07
2022-08-04T10:53:39.179Z,34.30
2022-08-04T10:56:20.108Z,34.55
2022-08-04T10:58:48.926Z,34.52
2022-08-04T11:02:03.041Z,34.56
2022-08-04T11:04:12.753Z,34.52
2022-08-04T11:06:39.404Z,34.22
2022-08-04T11:09:05.947Z,34.17
2022-08-04T11:12:01.254Z,34.30
2022-08-04T11:14:34.068Z,34.63
2022-08-04T11:17:07.729Z,34.10
2022-08-04T11:19:45.132Z,34.30
2022-08-04T11:22:23.240Z,34.56
2022-08-04T11:24:52.274Z,34.86
2022-08-04T11:27:26.135Z,35.09
2022-08-04T11:29:55.818Z,35.39
2022-08-04T11:32:26.124Z,35.61
2022-08-04T11:34:53.478Z,35.67
2022-08-04T11:37:27.126Z,35.92
2022-08-04T11:39:54.041Z,36.10
2022-08-04T11:42:24.871Z,36.31
2022-08-04T11:45:07.953Z,36.72
2022-08-04T11:47:40.563Z,37.10
2022-08-04T11:50:17.217Z,37.03
2022-08-04T11:52:46.282Z,37.23
2022-08-04T11:55:17.002Z,37.37
2022-08-04T11:57:43.658Z,37.74
2022-08-04T12:00:12.645Z,38.13
2022-08-04T12:02:49.677Z,37.97
2022-08-04T12:05:36.016Z,37.91
2022-08-04T12:08:10.104Z,38.07
2022-08-04T12:10:47.833Z,38.43
2022-08-04T12:13:14.600Z,38.84
2022-08-04T12:15:48.500Z,39.25
2022-08-04T12:18:30.410Z,39.67
2022-08-04T12:20:59.820Z,39.93
2022-08-04T12:23:30.086Z,40.21
2022-08-04T12:26:01.010Z,40.60
2022-08-04T12:29:08.592Z,40.97
2022-08-04T12:31:28.051Z,41.19
2022-08-04T12:34:04.719Z,41.18
2022-08-04T12:36:55.566Z,41.44
2022-08-04T12:39:22.576Z,41.72
2022-08-04T12:41:55.681Z,42.12
2022-08-04T12:44:36.537Z,42.45
2022-08-04T12:47:27.236Z,42.97
2022-08-04T12:50:00.897Z,43.60
2022-08-04T12:52:51.697Z,44.12
2022-08-04T12:55:18.031Z,44.73
2022-08-04T12:57:44.640Z,44.93
2022-08-04T13:00:16.063Z,45.01
2022-08-04T13:02:47.061Z,45.23
2022-08-04T13:05:16.797Z,45.63
2022-08-04T13:07:50.810Z,45.96
2022-08-04T13:10:18.475Z,46.12
2022-08-04T13:12:51.639Z,46.20
2022-08-04T13:15:21.246Z,46.76
2022-08-04T13:18:11.826Z,47.33
2022-08-04T13:20:45.079Z,47.73
2022-08-04T13:23:20.178Z,47.61
2022-08-04T13:26:42.534Z,47.54
2022-08-04T13:28:43.588Z,48.06
2022-08-04T13:31:12.707Z,48.50
2022-08-04T13:33:42.721Z,49.10
2022-08-04T13:36:09.549Z,49.54
2022-08-04T13:38:48.924Z,49.93
2022-08-04T13:41:15.468Z,50.40
2022-08-04T13:44:15.992Z,50.64
2022-08-04T13:46:32.910Z,50.85
2022-08-04T13:51:57.889Z,51.39
2022-08-04T13:54:35.487Z,51.60
2022-08-04T13:57:15.289Z,51.92
2022-08-04T13:59:41.853Z,51.67
2022-08-04T14:02:11.315Z,51.60
2022-08-04T14:04:45.203Z,50.94
2022-08-04T14:07:18.174Z,51.18
2022-08-04T14:10:03.652Z,51.34
2022-08-04T14:12:38.065Z,51.15
2022-08-04T14:15:54.661Z,51.52
2022-08-04T14:18:20.868Z,50.88
2022-08-04T14:20:59.801Z,51.13
2022-08-04T14:23:31.698Z,51.63
2022-08-04T14:25:58.511Z,51.89
2022-08-04T14:29:08.752Z,51.92
2022-08-04T14:31:21.661Z,51.77
2022-08-04T14:34:04.509Z,51.50
2022-08-04T14:37:13.947Z,51.59
2022-08-04T14:39:41.726Z,51.65
2022-08-04T14:42:46.104Z,51.49
2022-08-04T14:45:27.497Z,51.80
2022-08-04T14:47:56.999Z,52.26
2022-08-04T14:50:37.528Z,52.62
2022-08-04T14:53:05.020Z,52.95
2022-08-04T14:55:36.668Z,52.77
2022-08-04T14:58:36.059Z,52.86
2022-08-04T15:00:53.298Z,51.85
2022-08-04T15:03:20.468Z,51.90
2022-08-04T15:05:55.179Z,51.93
2022-08-04T15:08:32.927Z,51.90
2022-08-04T15:11:02.504Z,51.99
2022-08-04T15:13:32.478Z,51.41
2022-08-04T15:16:07.100Z,50.70
2022-08-04T15:18:39.046Z,50.15
2022-08-04T15:21:06.260Z,50.03
2022-08-04T15:23:39.695Z,49.31
2022-08-04T15:26:10.115Z,48.92
2022-08-04T15:28:37.655Z,48.57
2022-08-04T15:31:04.643Z,49.28
2022-08-04T15:33:40.026Z,49.38
2022-08-04T15:36:11.674Z,49.61
2022-08-04T15:39:03.708Z,49.50
2022-08-04T15:41:46.484Z,49.21
2022-08-04T15:44:58.583Z,49.09
2022-08-04T15:47:26.241Z,48.61
2022-08-04T15:50:03.338Z,47.82
2022-08-04T15:52:32.030Z,46.98
2022-08-04T15:55:18.126Z,46.10
2022-08-04T15:57:59.229Z,45.04
2022-08-04T16:00:28.520Z,44.27
2022-08-04T16:02:57.666Z,43.78
2022-08-04T16:05:24.235Z,43.38
2022-08-04T16:08:04.597Z,42.98
2022-08-04T16:11:00.925Z,42.53
2022-08-04T16:13:30.069Z,42.10
2022-08-04T16:16:03.539Z,41.68
2022-08-04T16:18:30.447Z,41.26
2022-08-04T16:20:57.995Z,40.88
2022-08-04T16:23:52.527Z,40.59
2022-08-04T16:26:45.244Z,40.06
2022-08-04T16:29:29.007Z,39.67
2022-08-04T16:32:05.353Z,39.35
2022-08-04T16:34:48.289Z,38.98
2022-08-04T16:37:18.971Z,38.63
2022-08-04T16:39:50.852Z,38.42
2022-08-04T16:42:30.536Z,38.21
2022-08-04T16:45:02.348Z,38.03
2022-08-04T16:47:47.204Z,37.85
2022-08-04T16:50:26.006Z,37.66
2022-08-04T16:52:54.074Z,37.48
2022-08-04T16:55:27.188Z,37.13
2022-08-04T16:57:54.692Z,36.88
2022-08-04T17:00:31.989Z,36.70
2022-08-04T17:03:00.796Z,36.42
2022-08-04T17:05:38.447Z,36.25
2022-08-04T17:08:28.710Z,35.86
2022-08-04T17:10:53.480Z,35.67
2022-08-04T17:14:01.983Z,35.53
2022-08-04T17:16:18.960Z,35.26
2022-08-04T17:18:51.666Z,35.01
2022-08-04T17:21:20.036Z,34.90
2022-08-04T17:24:16.543Z,34.76
2022-08-04T17:29:43.144Z,34.54
2022-08-04T17:32:17.289Z,34.43
2022-08-04T17:34:48.793Z,34.33
2022-08-04T17:40:06.335Z,34.11
2022-08-04T17:42:39.182Z,34.00
2022-08-04T17:48:07.495Z,33.74
2022-08-04T17:50:36.887Z,33.63
2022-08-04T17:53:13.298Z,33.53
2022-08-04T17:55:40.091Z,33.40
2022-08-04T17:58:21.137Z,33.29
2022-08-04T18:00:51.169Z,33.19
2022-08-04T18:03:30.145Z,33.07
2022-08-04T18:06:03.502Z,32.97
2022-08-04T18:08:39.778Z,32.91
2022-08-04T18:11:10.276Z,32.83
2022-08-04T18:13:42.813Z,32.75
2022-08-04T18:16:22.157Z,32.67
2022-08-04T18:19:10.347Z,32.60
2022-08-04T18:21:46.640Z,32.50
2022-08-04T18:24:35.113Z,32.42
2022-08-04T18:27:19.580Z,32.31
2022-08-04T18:30:14.556Z,32.21
2022-08-04T18:32:34.180Z,32.10
2022-08-04T18:35:05.736Z,32.01
2022-08-04T18:38:06.384Z,31.94
2022-08-04T18:43:14.451Z,31.84
2022-08-04T18:45:41.646Z,31.80
2022-08-04T18:48:17.636Z,31.73
2022-08-04T18:51:09.180Z,31.55
2022-08-04T18:53:35.634Z,31.37
2022-08-04T18:56:03.556Z,31.26
2022-08-04T18:58:32.732Z,31.22
2022-08-04T19:01:01.103Z,31.23
2022-08-04T19:03:33.346Z,31.21
2022-08-04T19:06:03.073Z,31.17
2022-08-04T19:08:34.578Z,31.15
2022-08-04T19:11:36.846Z,31.12
2022-08-04T19:13:58.073Z,31.03
2022-08-04T19:16:28.791Z,30.89
2022-08-04T19:18:56.000Z,30.77
2022-08-04T19:21:59.299Z,30.62
2022-08-04T19:24:32.517Z,30.47
2022-08-04T19:27:06.924Z,30.36
2022-08-04T19:29:37.829Z,30.30
2022-08-04T19:32:13.800Z,30.23
2022-08-04T19:34:47.321Z,30.16
2022-08-04T19:37:58.336Z,30.09
2022-08-04T19:40:05.725Z,30.00
2022-08-04T19:42:34.843Z,29.92
2022-08-04T19:45:04.498Z,29.85
2022-08-04T19:48:11.674Z,29.78
2022-08-04T19:50:23.693Z,29.68
2022-08-04T19:52:53.014Z,29.52
2022-08-04T19:55:22.365Z,29.43
2022-08-04T19:57:54.628Z,29.40
2022-08-04T20:00:33.225Z,29.34
2022-08-04T20:03:01.859Z,29.30
2022-08-04T20:05:34.204Z,29.26
2022-08-04T20:08:18.969Z,29.22
2022-08-04T20:10:51.923Z,29.17
2022-08-04T20:13:19.635Z,29.13
2022-08-04T20:15:58.086Z,29.07
2022-08-04T20:21:19.635Z,28.97
2022-08-04T20:23:51.200Z,28.92
2022-08-04T20:26:17.840Z,28.87
2022-08-04T20:28:51.962Z,28.82
2022-08-04T20:31:19.106Z,28.75
2022-08-04T20:33:53.489Z,28.71
2022-08-04T20:36:20.958Z,28.70
2022-08-04T20:38:52.000Z,28.66
2022-08-04T20:41:22.269Z,28.57
2022-08-04T20:43:56.191Z,28.55
2022-08-04T20:46:29.261Z,28.54
2022-08-04T20:48:57.473Z,28.52
2022-08-04T20:51:32.161Z,28.49
2022-08-04T20:54:01.324Z,28.45
2022-08-04T20:56:31.333Z,28.41
2022-08-04T20:59:01.464Z,28.36
2022-08-04T21:01:37.011Z,28.30
2022-08-04T21:04:27.930Z,28.23
2022-08-04T21:06:56.024Z,28.06
2022-08-04T21:09:38.077Z,28.02
2022-08-04T21:12:27.767Z,27.99
2022-08-04T21:14:56.744Z,27.96
2022-08-04T21:17:57.725Z,27.95
2022-08-04T21:20:13.880Z,27.90
2022-08-04T21:22:40.881Z,27.87
2022-08-04T21:25:15.867Z,27.85
2022-08-04T21:27:43.464Z,27.79
2022-08-04T21:30:14.998Z,27.75
2022-08-04T21:32:51.132Z,27.72
2022-08-04T21:35:21.409Z,27.71
2022-08-04T21:38:03.381Z,27.69
2022-08-04T21:40:37.869Z,27.68
2022-08-04T21:43:05.551Z,27.66
2022-08-04T21:45:36.431Z,27.63
2022-08-04T21:48:05.058Z,27.61
2022-08-04T21:50:31.643Z,27.58
2022-08-04T21:53:00.539Z,27.55
2022-08-04T21:56:05.446Z,27.53
2022-08-04T21:58:16.147Z,27.53
2022-08-04T22:00:43.585Z,27.52
2022-08-04T22:06:04.954Z,27.41
2022-08-04T22:08:31.897Z,27.37
2022-08-04T22:10:59.049Z,27.33
2022-08-04T22:13:52.343Z,27.31
2022-08-04T22:16:15.534Z,27.23
2022-08-04T22:18:42.567Z,27.16
2022-08-04T22:21:17.140Z,27.09
2022-08-04T22:23:50.563Z,26.92
2022-08-04T22:26:20.245Z,26.87
2022-08-04T22:28:53.841Z,26.85
2022-08-04T22:31:24.760Z,26.85
2022-08-04T22:33:56.138Z,26.81
2022-08-04T22:36:25.355Z,26.78
2022-08-04T22:39:01.543Z,26.74
2022-08-04T22:41:34.380Z,26.76
2022-08-04T22:44:16.149Z,26.74
2022-08-04T22:46:42.906Z,26.72
2022-08-04T22:49:09.545Z,26.70
2022-08-04T22:51:36.102Z,26.68
2022-08-04T22:54:02.678Z,26.66
2022-08-04T22:56:45.432Z,26.63
2022-08-04T22:59:17.402Z,26.63
2022-08-04T23:01:59.564Z,26.60
2022-08-04T23:04:29.224Z,26.58
2022-08-04T23:06:55.769Z,26.56
2022-08-04T23:09:27.031Z,26.54
2022-08-04T23:12:28.398Z,26.52
2022-08-04T23:14:56.211Z,26.51
2022-08-04T23:17:23.234Z,26.48
2022-08-04T23:19:58.291Z,26.45
2022-08-04T23:22:42.235Z,26.42
2022-08-04T23:25:18.484Z,26.41
2022-08-04T23:27:59.727Z,26.36
2022-08-04T23:30:30.417Z,26.28
2022-08-04T23:32:57.456Z,26.27
2022-08-04T23:35:24.153Z,26.26
2022-08-04T23:37:57.133Z,26.23
2022-08-04T23:40:33.509Z,26.20
2022-08-04T23:43:01.971Z,26.16
2022-08-04T23:46:04.169Z,26.16
2022-08-04T23:48:20.844Z,26.12
2022-08-04T23:50:48.271Z,26.09
2022-08-04T23:53:18.750Z,26.04
2022-08-04T23:55:49.380Z,25.96
2022-08-04T23:58:18.864Z,25.95
